Flight Briefing for CPX211

Departure Arrival
Benito Juárez International Airport (MMMX)
Click to view FAA NOTAMS
Miami International Airport (KMIA)
Click to view FAA NOTAMS
Departure Time Arrival Time
1130 UTC 1430 UTC
Aircraft Distance
B767-300BDSF 1145nm
Departure METAR Arrival METAR
MMMX 192247Z 17010KT 12SM SKC 25/M03 A3016 NOSIG KMIA 192253Z 10011KT 10SM SCT027 26/21 A3013 RMK AO2 SLP202 T02560206
Suggested Route
CCUDA M580 NATLE CYY SSCOT5


View recent IFR Routes data
Notes



Charts and Procedures

Charts for MMMX
No chart available
Charts for KMIA
No chart available

Ventusky Weather




{"cat":null,"equip":null,"transponder":null,"pbn":"PBN\/","maxpax":null,"oew":"0.0","mzfw":"0.0","mtow":"0.0","mlw":"0.0","maxfuel":"0.0"} DEVELOPMENTAL TEST USE ONLY